Time;durP1;ratioP1;P1;durP2;ratioP2;P2;SDS_P1;SDS_P2;PMS_P1;PMS_P2;Temp;Humidity;BMP_temperature;BMP_pressure;BME280_temperature;BME280_humidity;BME280_pressure;Samples;Min_cycle;Max_cycle;Signal;HPM_P1;HPM_P2
2023/10/26 00:00:26;;;;;;;3.28;1.88;;;-0.10;77.70;;;;;;5038918;28;20026;-88
2023/10/26 00:02:52;;;;;;;9.00;2.58;;;-0.10;77.50;;;;;;5028418;28;20032;-89
2023/10/26 00:05:18;;;;;;;4.47;2.30;;;-0.10;77.40;;;;;;5035435;28;20068;-86
2023/10/26 00:07:44;;;;;;;2.35;1.83;;;-0.10;77.00;;;;;;5032196;28;20026;-86
2023/10/26 00:10:10;;;;;;;3.45;1.92;;;-0.10;76.90;;;;;;5015223;28;20386;-86
2023/10/26 00:12:36;;;;;;;6.28;2.63;;;-0.10;77.00;;;;;;5040577;28;20093;-87
2023/10/26 00:15:02;;;;;;;2.95;2.20;;;-0.10;77.10;;;;;;5051326;28;20041;-87
2023/10/26 00:17:28;;;;;;;3.65;2.08;;;-0.10;77.00;;;;;;5033630;28;20375;-87
2023/10/26 00:19:54;;;;;;;5.25;2.10;;;-0.10;76.80;;;;;;5021634;28;20029;-86
2023/10/26 00:22:23;;;;;;;2.40;1.73;;;-0.10;76.70;;;;;;5022386;28;20048;-87
2023/10/26 00:24:50;;;;;;;2.42;1.85;;;-0.10;76.60;;;;;;5014989;28;20034;-85
2023/10/26 00:27:16;;;;;;;5.38;2.03;;;0.00;76.30;;;;;;5034110;28;20060;-86
2023/10/26 00:29:42;;;;;;;5.15;1.92;;;0.00;76.20;;;;;;5035544;28;20036;-87
2023/10/26 00:32:11;;;;;;;5.38;2.35;;;0.00;76.30;;;;;;5034930;28;20037;-87
2023/10/26 00:34:37;;;;;;;3.92;2.22;;;-0.10;76.20;;;;;;5034875;28;20053;-86
2023/10/26 00:37:03;;;;;;;5.20;2.30;;;0.00;76.40;;;;;;5034499;28;20040;-85
2023/10/26 00:39:29;;;;;;;2.08;1.88;;;0.00;76.40;;;;;;5005827;28;20026;-86
2023/10/26 00:41:56;;;;;;;3.78;2.00;;;0.00;76.40;;;;;;5025764;28;20040;-85
2023/10/26 00:44:22;;;;;;;3.73;1.90;;;0.00;76.20;;;;;;5032800;28;20052;-86
2023/10/26 00:46:50;;;;;;;3.72;2.55;;;0.00;76.40;;;;;;5023055;28;20294;-87
2023/10/26 00:49:18;;;;;;;3.45;2.83;;;0.00;76.40;;;;;;5033722;28;20017;-87
2023/10/26 00:51:59;;;;;;;8.95;2.25;;;-0.10;76.30;;;;;;5027574;28;20025;-85
2023/10/26 00:54:26;;;;;;;2.47;1.55;;;-0.10;76.20;;;;;;5017045;28;20116;-86
2023/10/26 00:56:54;;;;;;;4.85;2.35;;;-0.10;76.00;;;;;;5019504;28;20422;-85
2023/10/26 00:59:20;;;;;;;2.70;2.10;;;-0.10;75.70;;;;;;5031702;28;20079;-86
2023/10/26 01:01:48;;;;;;;3.45;2.67;;;-0.10;75.50;;;;;;5029852;28;20100;-87
2023/10/26 01:04:16;;;;;;;3.03;2.70;;;-0.10;75.60;;;;;;5013056;28;20071;-87
2023/10/26 01:06:43;;;;;;;6.50;3.05;;;-0.10;75.60;;;;;;5054119;28;20016;-86
2023/10/26 01:09:09;;;;;;;2.93;2.33;;;-0.10;75.80;;;;;;5043035;28;20026;-87
2023/10/26 01:11:39;;;;;;;3.28;2.25;;;-0.10;76.00;;;;;;5032113;28;20295;-88
2023/10/26 01:14:06;;;;;;;3.65;2.35;;;-0.10;76.00;;;;;;5014468;28;20056;-87
2023/10/26 01:16:32;;;;;;;4.35;2.42;;;-0.10;76.00;;;;;;5036523;28;20654;-88
2023/10/26 01:18:59;;;;;;;3.63;3.00;;;-0.10;76.20;;;;;;5030081;28;20066;-88
2023/10/26 01:21:27;;;;;;;4.20;2.95;;;0.00;76.00;;;;;;5031476;28;20075;-88
2023/10/26 01:23:53;;;;;;;6.65;2.70;;;-0.10;75.90;;;;;;5025538;28;20490;-89
2023/10/26 01:26:19;;;;;;;7.25;3.83;;;-0.10;75.90;;;;;;5037617;28;20038;-88
2023/10/26 01:28:45;;;;;;;5.22;2.60;;;0.00;75.70;;;;;;5005463;28;20437;-87
2023/10/26 01:31:11;;;;;;;4.90;2.30;;;-0.10;75.40;;;;;;5045712;28;20029;-87
2023/10/26 01:33:36;;;;;;;5.22;2.75;;;-0.10;75.70;;;;;;5056550;28;20109;-87
2023/10/26 01:36:02;;;;;;;4.07;3.30;;;-0.10;75.90;;;;;;5038720;28;20021;-88
2023/10/26 01:38:28;;;;;;;4.00;2.85;;;-0.10;76.00;;;;;;5004169;28;20030;-87
2023/10/26 01:40:54;;;;;;;2.70;2.20;;;-0.10;76.30;;;;;;5039511;28;20009;-88
2023/10/26 01:43:20;;;;;;;3.35;2.40;;;0.00;75.90;;;;;;5055481;28;20040;-85
2023/10/26 01:45:46;;;;;;;4.25;2.90;;;-0.10;75.60;;;;;;5024378;28;20040;-88
2023/10/26 01:48:12;;;;;;;3.78;3.47;;;-0.10;75.70;;;;;;5039248;28;20434;-88
2023/10/26 01:50:37;;;;;;;4.22;2.50;;;-0.10;75.70;;;;;;5040811;28;20025;-85
2023/10/26 01:53:03;;;;;;;3.65;2.78;;;-0.10;76.00;;;;;;5031540;28;20026;-88
2023/10/26 01:55:29;;;;;;;6.38;3.03;;;-0.10;76.10;;;;;;5035922;28;20032;-88
2023/10/26 01:57:55;;;;;;;5.13;2.13;;;-0.10;75.90;;;;;;5028392;28;20359;-88
2023/10/26 02:00:20;;;;;;;4.85;2.70;;;-0.10;75.80;;;;;;5030635;28;20483;-87
2023/10/26 02:02:48;;;;;;;4.03;2.75;;;-0.10;75.80;;;;;;5024733;28;20382;-88
2023/10/26 02:05:14;;;;;;;3.15;2.30;;;-0.10;76.00;;;;;;5036516;28;20041;-87
2023/10/26 02:07:40;;;;;;;6.03;2.50;;;-0.10;76.00;;;;;;5026513;28;20033;-87
2023/10/26 02:10:07;;;;;;;5.32;2.95;;;-0.10;75.90;;;;;;5038514;28;20040;-85
2023/10/26 02:12:33;;;;;;;5.20;2.30;;;-0.20;75.60;;;;;;5002332;28;20022;-88
2023/10/26 02:14:58;;;;;;;4.85;2.22;;;-0.20;75.80;;;;;;5032773;28;20045;-88
2023/10/26 02:17:24;;;;;;;3.88;2.33;;;-0.20;75.90;;;;;;5018210;28;20117;-88
2023/10/26 02:19:50;;;;;;;3.40;2.40;;;-0.20;76.00;;;;;;5043291;28;20025;-88
2023/10/26 02:22:16;;;;;;;3.47;1.90;;;-0.20;76.10;;;;;;5025271;28;20055;-87
2023/10/26 02:24:42;;;;;;;2.08;1.88;;;-0.20;76.10;;;;;;5012704;28;20117;-88
2023/10/26 02:27:09;;;;;;;2.60;2.05;;;-0.20;76.20;;;;;;5045192;28;20078;-88
2023/10/26 02:29:34;;;;;;;3.95;2.45;;;-0.20;76.30;;;;;;5032044;28;20056;-86
2023/10/26 02:32:00;;;;;;;3.60;2.67;;;-0.20;76.30;;;;;;5040969;28;20056;-87
2023/10/26 02:34:26;;;;;;;3.53;2.15;;;-0.20;76.50;;;;;;5049676;28;20083;-85
2023/10/26 02:36:52;;;;;;;1.95;1.75;;;-0.20;76.70;;;;;;5033231;28;20009;-85
2023/10/26 02:39:18;;;;;;;4.07;2.20;;;-0.20;76.60;;;;;;5034370;28;20025;-87
2023/10/26 02:41:43;;;;;;;2.13;1.48;;;-0.20;76.50;;;;;;5028702;28;20017;-88
2023/10/26 02:44:09;;;;;;;3.03;2.13;;;-0.20;76.30;;;;;;5016999;28;20475;-88
2023/10/26 02:46:35;;;;;;;2.00;1.67;;;-0.30;76.10;;;;;;5029813;28;20034;-86
2023/10/26 02:49:01;;;;;;;2.50;1.67;;;-0.30;76.10;;;;;;5046771;28;20028;-87
2023/10/26 02:51:27;;;;;;;3.25;2.13;;;-0.30;76.20;;;;;;5037033;28;20478;-87
2023/10/26 02:53:52;;;;;;;2.50;1.88;;;-0.30;76.30;;;;;;5030593;28;20056;-87
2023/10/26 02:56:18;;;;;;;4.15;2.38;;;-0.30;76.40;;;;;;5036405;28;20348;-89
2023/10/26 02:58:44;;;;;;;4.63;2.38;;;-0.30;76.60;;;;;;5036309;28;20017;-88
2023/10/26 03:01:10;;;;;;;8.63;2.33;;;-0.30;76.50;;;;;;4999430;28;20030;-89
2023/10/26 03:03:35;;;;;;;4.00;1.80;;;-0.30;76.50;;;;;;5027359;28;20029;-89
2023/10/26 03:06:02;;;;;;;3.08;2.15;;;-0.40;76.30;;;;;;5034339;28;20026;-89
2023/10/26 03:08:28;;;;;;;4.45;2.28;;;-0.40;76.20;;;;;;5017827;28;20037;-89
2023/10/26 03:10:54;;;;;;;3.33;2.50;;;-0.40;76.40;;;;;;5024451;28;20030;-89
2023/10/26 03:13:19;;;;;;;3.50;2.45;;;-0.50;76.40;;;;;;5040832;28;20020;-90
2023/10/26 03:15:45;;;;;;;5.53;3.05;;;-0.50;76.90;;;;;;5036871;28;20736;-88
2023/10/26 03:18:11;;;;;;;3.10;2.00;;;-0.50;77.10;;;;;;5019422;28;20030;-89
2023/10/26 03:20:37;;;;;;;2.92;2.00;;;-0.40;77.00;;;;;;5018961;28;20089;-90
2023/10/26 03:23:03;;;;;;;4.35;2.63;;;-0.40;76.90;;;;;;5041760;28;20021;-90
2023/10/26 03:25:28;;;;;;;2.45;1.70;;;-0.40;76.90;;;;;;5044867;28;20037;-89
2023/10/26 03:27:54;;;;;;;5.20;2.70;;;-0.40;76.80;;;;;;5037927;28;20065;-88
2023/10/26 03:30:20;;;;;;;3.63;2.50;;;-0.40;76.70;;;;;;5035001;28;20024;-91
2023/10/26 03:32:46;;;;;;;5.68;2.47;;;-0.50;77.00;;;;;;5044255;28;20048;-90
2023/10/26 03:35:12;;;;;;;4.65;2.42;;;-0.50;77.10;;;;;;5024640;28;20052;-89
2023/10/26 03:37:38;;;;;;;3.72;3.00;;;-0.40;77.10;;;;;;5009502;28;20033;-89
2023/10/26 03:40:08;;;;;;;2.63;2.38;;;-0.50;77.20;;;;;;5037940;28;20079;-90
2023/10/26 03:42:35;;;;;;;2.47;2.13;;;-0.50;76.90;;;;;;5012106;28;20021;-90
2023/10/26 03:45:01;;;;;;;3.53;2.43;;;-0.50;76.80;;;;;;5012091;28;20026;-87
2023/10/26 03:47:26;;;;;;;6.35;2.75;;;-0.50;76.70;;;;;;5034996;28;20362;-87
2023/10/26 03:49:52;;;;;;;7.75;3.00;;;-0.50;76.60;;;;;;5045071;28;20013;-87
2023/10/26 03:52:20;;;;;;;3.67;2.90;;;-0.50;76.80;;;;;;5015470;28;20040;-86
2023/10/26 03:54:46;;;;;;;5.53;3.22;;;-0.60;76.80;;;;;;5013590;28;20487;-86
2023/10/26 03:57:13;;;;;;;5.40;3.30;;;-0.60;77.40;;;;;;5028419;28;20108;-86
2023/10/26 03:59:38;;;;;;;5.40;3.55;;;-0.60;77.30;;;;;;5033856;28;20406;-86
2023/10/26 04:02:04;;;;;;;2.75;2.55;;;-0.60;77.50;;;;;;5016464;28;20025;-86
2023/10/26 04:04:30;;;;;;;8.50;4.50;;;-0.60;77.70;;;;;;5025274;28;20028;-87
2023/10/26 04:06:56;;;;;;;4.38;3.17;;;-0.60;78.00;;;;;;5043599;28;20505;-87
2023/10/26 04:09:22;;;;;;;5.85;5.20;;;-0.50;78.00;;;;;;5029826;28;20034;-86
2023/10/26 04:11:48;;;;;;;7.03;5.00;;;-0.50;77.70;;;;;;5007559;28;20025;-88
2023/10/26 04:14:14;;;;;;;9.80;5.15;;;-0.50;77.70;;;;;;5015968;28;20068;-87
2023/10/26 04:16:40;;;;;;;10.88;5.07;;;-0.50;77.80;;;;;;5035899;28;20029;-86
2023/10/26 04:19:06;;;;;;;7.20;4.75;;;-0.60;77.80;;;;;;5043002;28;20028;-85
2023/10/26 04:21:33;;;;;;;4.63;4.22;;;-0.50;77.90;;;;;;5016533;28;20446;-86
2023/10/26 04:23:59;;;;;;;6.85;4.68;;;-0.60;77.90;;;;;;5031941;28;20049;-84
2023/10/26 04:26:26;;;;;;;6.32;5.18;;;-0.50;77.90;;;;;;5032920;28;20043;-86
2023/10/26 04:28:52;;;;;;;10.27;5.80;;;-0.60;77.50;;;;;;5032669;28;20101;-84
2023/10/26 04:31:21;;;;;;;9.57;6.13;;;-0.60;77.80;;;;;;5032481;28;20044;-85
2023/10/26 04:33:48;;;;;;;7.47;5.07;;;-0.60;78.20;;;;;;5019625;28;20020;-85
2023/10/26 04:36:13;;;;;;;7.47;5.50;;;-0.50;77.80;;;;;;5033946;28;20025;-85
2023/10/26 04:38:39;;;;;;;10.25;5.38;;;-0.50;77.50;;;;;;5047671;28;20250;-87
2023/10/26 04:41:05;;;;;;;6.65;3.53;;;-0.50;77.80;;;;;;5041123;28;20021;-87
2023/10/26 04:43:31;;;;;;;6.88;4.15;;;-0.50;78.10;;;;;;5053202;28;20072;-87
2023/10/26 04:45:57;;;;;;;10.63;3.58;;;-0.50;77.40;;;;;;5032564;28;20037;-86
2023/10/26 04:48:23;;;;;;;8.43;4.25;;;-0.60;77.30;;;;;;5031917;28;20395;-86
2023/10/26 04:50:52;;;;;;;9.02;3.97;;;-0.60;77.30;;;;;;5035129;28;20049;-87
2023/10/26 04:53:18;;;;;;;8.68;4.45;;;-0.60;77.30;;;;;;5026494;28;20103;-86
2023/10/26 04:55:44;;;;;;;6.75;4.65;;;-0.70;77.40;;;;;;5043250;28;20104;-87
2023/10/26 04:58:09;;;;;;;7.55;3.78;;;-0.70;77.40;;;;;;5026696;28;20022;-87
2023/10/26 05:00:35;;;;;;;5.03;4.28;;;-0.70;77.50;;;;;;5037835;28;20037;-87
2023/10/26 05:03:02;;;;;;;8.38;4.97;;;-0.60;77.60;;;;;;5046824;28;20513;-87
2023/10/26 05:05:27;;;;;;;13.73;4.88;;;-0.60;77.60;;;;;;5032819;28;20034;-87
2023/10/26 05:07:53;;;;;;;5.60;3.85;;;-0.50;77.90;;;;;;5012465;28;20475;-88
2023/10/26 05:10:20;;;;;;;12.85;4.60;;;-0.50;77.50;;;;;;5024353;28;20021;-86
2023/10/26 05:12:46;;;;;;;10.32;4.57;;;-0.50;77.60;;;;;;5017839;28;20037;-87
2023/10/26 05:15:12;;;;;;;7.50;4.43;;;-0.50;77.20;;;;;;5032553;28;20041;-87
2023/10/26 05:17:38;;;;;;;7.63;3.47;;;-0.60;77.10;;;;;;5025046;28;20034;-86
2023/10/26 05:20:05;;;;;;;7.90;5.07;;;-0.60;77.20;;;;;;5014544;28;20064;-88
2023/10/26 05:22:35;;;;;;;5.88;4.18;;;-0.60;77.00;;;;;;5010734;28;20034;-85
2023/10/26 05:25:04;;;;;;;4.72;4.13;;;-0.60;77.50;;;;;;5043179;28;20124;-87
2023/10/26 05:27:31;;;;;;;10.73;4.72;;;-0.50;77.40;;;;;;5048485;28;20065;-87
2023/10/26 05:29:58;;;;;;;7.80;4.90;;;-0.50;77.20;;;;;;5021100;28;20025;-87
2023/10/26 05:32:23;;;;;;;7.75;4.22;;;-0.50;76.90;;;;;;5000174;28;20034;-87
2023/10/26 05:34:49;;;;;;;13.15;4.38;;;-0.50;77.20;;;;;;5026370;28;20545;-89
2023/10/26 05:37:16;;;;;;;9.60;4.70;;;-0.50;76.70;;;;;;5015254;28;20471;-88
2023/10/26 05:39:42;;;;;;;17.30;5.77;;;-0.50;76.90;;;;;;5007546;28;20026;-88
2023/10/26 05:42:07;;;;;;;8.90;4.80;;;-0.50;77.10;;;;;;5022696;28;20560;-87
2023/10/26 05:44:33;;;;;;;5.80;4.50;;;-0.50;77.00;;;;;;5028164;28;20064;-89
2023/10/26 05:46:59;;;;;;;8.45;4.97;;;-0.40;77.10;;;;;;5030643;28;20037;-89
2023/10/26 05:49:25;;;;;;;13.75;5.28;;;-0.30;76.90;;;;;;5000119;28;20014;-88
2023/10/26 05:51:51;;;;;;;9.40;4.00;;;-0.30;76.50;;;;;;5043471;28;20035;-89
2023/10/26 05:54:18;;;;;;;6.85;5.35;;;-0.30;75.90;;;;;;5033869;28;20100;-87
2023/10/26 05:56:44;;;;;;;7.10;4.60;;;-0.40;76.10;;;;;;5019064;28;20041;-86
2023/10/26 05:59:10;;;;;;;8.57;4.32;;;-0.30;76.00;;;;;;5008276;28;20017;-88
2023/10/26 06:01:35;;;;;;;8.43;3.97;;;-0.30;76.10;;;;;;5018464;28;20149;-84
2023/10/26 06:04:02;;;;;;;4.88;4.43;;;-0.30;75.80;;;;;;5010635;28;20076;-85
2023/10/26 06:06:27;;;;;;;9.57;4.72;;;-0.20;75.80;;;;;;5027011;28;20117;-86
2023/10/26 06:08:53;;;;;;;7.72;5.00;;;-0.20;75.90;;;;;;5029792;28;20490;-86
2023/10/26 06:11:19;;;;;;;4.13;3.72;;;-0.20;75.70;;;;;;5035325;28;20025;-85
2023/10/26 06:13:45;;;;;;;12.05;4.55;;;-0.20;75.30;;;;;;5038241;28;20132;-86
2023/10/26 06:16:15;;;;;;;11.43;4.20;;;-0.30;75.00;;;;;;5028481;28;20045;-86
2023/10/26 06:18:42;;;;;;;6.40;3.47;;;-0.20;75.20;;;;;;5041477;28;20026;-86
2023/10/26 06:21:07;;;;;;;9.67;4.43;;;-0.20;75.10;;;;;;5033091;28;20113;-86
2023/10/26 06:23:34;;;;;;;7.00;3.80;;;-0.30;74.90;;;;;;5016045;28;20320;-86
2023/10/26 06:26:01;;;;;;;5.80;3.58;;;-0.20;75.30;;;;;;5031130;28;20059;-88
2023/10/26 06:28:27;;;;;;;6.07;3.95;;;-0.10;75.00;;;;;;5028838;28;20104;-88
2023/10/26 06:30:54;;;;;;;6.45;5.03;;;0.00;74.50;;;;;;5026539;28;20036;-92
2023/10/26 06:33:20;;;;;;;10.40;3.70;;;0.00;74.70;;;;;;5018258;28;20076;-90
2023/10/26 06:35:46;;;;;;;9.32;4.25;;;0.00;74.50;;;;;;5017173;28;20399;-90
2023/10/26 06:38:12;;;;;;;7.78;3.67;;;0.00;74.40;;;;;;5016290;28;20018;-89
2023/10/26 06:40:38;;;;;;;7.13;3.40;;;0.10;74.10;;;;;;5016464;28;20050;-88
2023/10/26 06:43:04;;;;;;;5.95;4.03;;;0.10;73.70;;;;;;5019379;28;20034;-88
2023/10/26 06:45:30;;;;;;;4.82;3.85;;;0.00;74.20;;;;;;5017471;28;20472;-89
2023/10/26 06:47:55;;;;;;;6.03;4.00;;;0.10;74.40;;;;;;4999164;28;20037;-90
2023/10/26 06:50:23;;;;;;;6.25;3.20;;;0.10;74.40;;;;;;5029896;28;20479;-88
2023/10/26 06:52:49;;;;;;;5.93;3.00;;;0.20;73.60;;;;;;5022446;28;20387;-90
2023/10/26 06:55:16;;;;;;;7.57;4.40;;;0.10;73.40;;;;;;5036400;28;20030;-88
2023/10/26 06:57:42;;;;;;;9.07;3.70;;;0.10;73.50;;;;;;5014571;28;20557;-83
2023/10/26 07:00:09;;;;;;;18.35;5.47;;;0.20;73.70;;;;;;5021771;28;20030;-84
2023/10/26 07:02:36;;;;;;;4.20;3.58;;;0.30;73.40;;;;;;5014662;28;20022;-83
2023/10/26 07:05:05;;;;;;;8.75;3.78;;;0.20;73.50;;;;;;4998982;28;20085;-83
2023/10/26 07:07:36;;;;;;;6.15;3.97;;;0.20;73.20;;;;;;5025929;28;20037;-83
2023/10/26 07:10:02;;;;;;;11.52;5.13;;;0.20;73.70;;;;;;5020615;28;20537;-84
2023/10/26 07:12:28;;;;;;;8.25;4.80;;;0.30;73.90;;;;;;5029082;28;20030;-85
2023/10/26 07:14:54;;;;;;;9.50;4.40;;;0.40;73.50;;;;;;5020177;28;20041;-83
2023/10/26 07:17:21;;;;;;;10.43;3.90;;;0.50;73.20;;;;;;5016378;28;20079;-85
2023/10/26 07:19:47;;;;;;;5.80;3.60;;;0.60;73.50;;;;;;5014112;28;20018;-87
2023/10/26 07:22:13;;;;;;;7.03;3.65;;;0.60;72.60;;;;;;5014804;28;20264;-85
2023/10/26 07:24:38;;;;;;;9.07;4.63;;;0.60;72.40;;;;;;5021241;28;20025;-86
2023/10/26 07:27:04;;;;;;;6.53;4.38;;;0.50;72.50;;;;;;5030175;28;20065;-87
2023/10/26 07:29:30;;;;;;;8.68;5.45;;;0.60;72.70;;;;;;5023335;28;20049;-87
2023/10/26 07:31:56;;;;;;;7.03;4.60;;;0.70;72.80;;;;;;5014464;28;20026;-85
2023/10/26 07:34:22;;;;;;;8.48;3.92;;;0.60;72.50;;;;;;5014184;28;20021;-85
2023/10/26 07:36:48;;;;;;;14.10;4.50;;;0.60;72.70;;;;;;5018578;28;20331;-84
2023/10/26 07:39:14;;;;;;;13.48;4.05;;;0.80;72.80;;;;;;5014118;28;20030;-84
2023/10/26 07:41:40;;;;;;;6.72;4.30;;;0.90;72.70;;;;;;5013770;28;20021;-85
2023/10/26 07:44:06;;;;;;;6.80;4.70;;;0.90;71.90;;;;;;5013455;28;20030;-84
2023/10/26 07:46:32;;;;;;;8.45;4.20;;;1.00;72.10;;;;;;4995837;28;20088;-85
2023/10/26 07:48:58;;;;;;;15.52;4.38;;;1.00;71.50;;;;;;5014341;28;20021;-84
2023/10/26 07:51:25;;;;;;;8.07;4.50;;;0.90;71.70;;;;;;5018470;28;20034;-86
2023/10/26 07:53:51;;;;;;;8.00;4.22;;;0.90;72.10;;;;;;5013836;28;20033;-84
2023/10/26 07:56:16;;;;;;;10.93;4.55;;;0.90;71.50;;;;;;5014361;28;20034;-87
2023/10/26 07:58:42;;;;;;;7.28;3.63;;;0.80;72.00;;;;;;5017351;28;20093;-86
2023/10/26 08:01:09;;;;;;;5.53;4.10;;;1.00;72.50;;;;;;5027135;28;20143;-87
2023/10/26 08:03:35;;;;;;;11.27;4.47;;;1.30;73.10;;;;;;5032279;28;20021;-87
2023/10/26 08:06:02;;;;;;;9.50;4.78;;;1.80;72.50;;;;;;5030349;28;20385;-85
2023/10/26 08:08:29;;;;;;;10.40;4.55;;;2.20;70.80;;;;;;5015795;28;20101;-86
2023/10/26 08:11:16;;;;;;;13.02;5.43;;;2.20;69.20;;;;;;5014560;28;20124;-85
2023/10/26 08:13:42;;;;;;;7.95;4.25;;;2.20;69.40;;;;;;5020083;28;20044;-85
2023/10/26 08:16:08;;;;;;;9.90;4.53;;;2.10;69.50;;;;;;5034207;28;20045;-85
2023/10/26 08:18:34;;;;;;;6.78;4.68;;;2.10;69.70;;;;;;5033366;28;20537;-87
2023/10/26 08:21:00;;;;;;;11.45;4.97;;;2.20;69.70;;;;;;5029964;28;20033;-86
2023/10/26 08:23:29;;;;;;;10.68;5.32;;;2.30;69.10;;;;;;5022858;28;20569;-84
2023/10/26 08:25:55;;;;;;;8.82;4.00;;;2.20;68.10;;;;;;5019527;28;20380;-84
2023/10/26 08:28:21;;;;;;;7.35;4.70;;;2.00;69.20;;;;;;5012452;28;20429;-84
2023/10/26 08:30:48;;;;;;;14.60;6.28;;;1.90;69.00;;;;;;5018850;28;20029;-83
2023/10/26 08:33:15;;;;;;;9.43;5.13;;;1.80;69.10;;;;;;5013472;28;20053;-83
2023/10/26 08:35:52;;;;;;;9.93;4.83;;;1.80;70.00;;;;;;4996675;28;20026;-84
2023/10/26 08:38:18;;;;;;;;;;;1.90;69.70;;;;;;5019547;28;20029;-83
2023/10/26 08:40:53;;;;;;;7.13;3.90;;;1.90;70.00;;;;;;5004309;28;19959;-83
2023/10/26 08:43:19;;;;;;;7.03;4.40;;;1.90;70.00;;;;;;5038477;28;20033;-81
2023/10/26 08:45:46;;;;;;;8.27;4.78;;;1.90;70.20;;;;;;5022880;28;20045;-83
2023/10/26 08:48:16;;;;;;;8.63;4.90;;;2.20;71.30;;;;;;4994334;28;20501;-83
2023/10/26 08:50:42;;;;;;;11.57;4.13;;;3.10;71.20;;;;;;5012120;28;20101;-84
2023/10/26 08:53:09;;;;;;;7.10;4.53;;;4.10;67.20;;;;;;5011891;28;20030;-84
2023/10/26 08:55:38;;;;;;;7.13;4.15;;;4.60;66.10;;;;;;5014499;28;20550;-84
2023/10/26 08:58:04;;;;;;;10.38;5.97;;;5.20;65.40;;;;;;5026401;28;20405;-82
2023/10/26 09:00:30;;;;;;;12.75;5.30;;;5.20;62.20;;;;;;5012241;28;20018;-83
2023/10/26 09:02:56;;;;;;;11.15;5.43;;;4.70;61.80;;;;;;5019110;28;20538;-83
2023/10/26 09:05:22;;;;;;;8.57;4.95;;;3.90;62.50;;;;;;4994994;28;20118;-83
2023/10/26 09:07:48;;;;;;;6.05;4.32;;;3.50;64.40;;;;;;5012755;28;20033;-84
2023/10/26 09:10:36;;;;;;;7.15;3.88;;;3.50;65.30;;;;;;5012894;28;20092;-84
2023/10/26 09:13:06;;;;;;;5.45;3.13;;;3.80;65.00;;;;;;5016655;28;20038;-83
2023/10/26 09:15:47;;;;;;;8.35;4.57;;;3.70;64.10;;;;;;5035507;28;20129;-82
2023/10/26 09:18:15;;;;;;;9.90;4.47;;;3.30;64.20;;;;;;5035496;28;20030;-85
2023/10/26 09:20:43;;;;;;;7.18;4.47;;;3.00;65.10;;;;;;5035910;28;20021;-84
2023/10/26 09:23:27;;;;;;;14.13;4.15;;;2.90;65.80;;;;;;5022767;28;20037;-83
2023/10/26 09:26:00;;;;;;;7.60;4.57;;;2.70;66.40;;;;;;5016066;28;20113;-85
2023/10/26 09:28:26;;;;;;;9.02;4.45;;;2.60;66.40;;;;;;5017470;28;20030;-84
2023/10/26 09:30:59;;;;;;;8.13;4.05;;;2.60;66.70;;;;;;5017109;28;20448;-84
2023/10/26 09:33:26;;;;;;;11.25;4.53;;;2.50;67.10;;;;;;5018060;28;20479;-84
2023/10/26 09:35:55;;;;;;;13.15;5.32;;;2.50;67.10;;;;;;5017342;28;20151;-84
2023/10/26 09:38:36;;;;;;;7.75;4.70;;;2.70;67.60;;;;;;5022443;28;20379;-83
2023/10/26 09:41:10;;;;;;;13.25;5.00;;;3.20;67.70;;;;;;5010178;28;20133;-85
2023/10/26 09:43:37;;;;;;;14.85;5.03;;;3.80;66.70;;;;;;5005085;28;20026;-85
2023/10/26 09:46:03;;;;;;;8.77;5.20;;;4.60;66.10;;;;;;5020368;28;20038;-84
2023/10/26 09:48:29;;;;;;;8.07;4.57;;;5.70;64.40;;;;;;5018833;28;20032;-86
2023/10/26 09:51:00;;;;;;;9.60;4.22;;;6.50;61.20;;;;;;5017962;28;20096;-87
2023/10/26 09:53:35;;;;;;;11.23;5.00;;;7.00;59.80;;;;;;5018856;28;20053;-87
2023/10/26 09:56:03;;;;;;;9.15;4.13;;;7.30;57.70;;;;;;5017799;28;20030;-87
2023/10/26 09:58:39;;;;;;;9.25;4.25;;;7.40;57.40;;;;;;5015920;28;20029;-87
2023/10/26 10:01:34;;;;;;;7.80;3.75;;;7.50;56.60;;;;;;4992520;28;20522;-86
2023/10/26 10:04:00;;;;;;;12.07;4.50;;;7.40;55.70;;;;;;5015906;28;20024;-85
2023/10/26 10:06:52;;;;;;;13.97;4.10;;;7.30;56.80;;;;;;5015731;28;20057;-86
2023/10/26 10:09:22;;;;;;;7.50;4.03;;;6.90;55.90;;;;;;5015747;28;20060;-87
2023/10/26 10:12:14;;;;;;;12.57;4.50;;;6.50;56.40;;;;;;5021187;28;20026;-86
2023/10/26 10:14:51;;;;;;;9.50;4.03;;;5.90;56.80;;;;;;5016873;28;20040;-88
2023/10/26 10:17:22;;;;;;;12.43;4.68;;;5.40;57.80;;;;;;5024904;28;20364;-86
2023/10/26 10:20:08;;;;;;;10.82;4.40;;;4.90;58.50;;;;;;5034568;28;20029;-84
2023/10/26 10:22:36;;;;;;;6.22;3.17;;;4.60;59.50;;;;;;4992472;28;20499;-87
2023/10/26 10:25:03;;;;;;;5.50;3.17;;;4.30;60.10;;;;;;5018443;28;20022;-85
2023/10/26 10:27:28;;;;;;;7.85;3.70;;;4.10;60.50;;;;;;5023986;28;20080;-85
2023/10/26 10:29:58;;;;;;;6.72;4.10;;;3.90;60.80;;;;;;5032487;28;20018;-86
2023/10/26 10:32:55;;;;;;;5.53;3.90;;;3.80;61.30;;;;;;5025261;28;20033;-86
2023/10/26 10:35:21;;;;;;;;;;;3.70;61.90;;;;;;5015252;28;20037;-85
2023/10/26 10:38:13;;;;;;;9.07;4.25;;;3.60;62.10;;;;;;5001731;28;20354;-86
2023/10/26 10:40:54;;;;;;;9.07;4.05;;;3.40;62.50;;;;;;5014621;28;20033;-85
2023/10/26 10:43:48;;;;;;;10.38;4.63;;;3.40;62.80;;;;;;5017582;28;20026;-84
2023/10/26 10:46:16;;;;;;;13.15;3.63;;;3.30;62.60;;;;;;5014973;28;20033;-84
2023/10/26 10:48:58;;;;;;;12.95;5.38;;;3.10;62.70;;;;;;5019678;28;20048;-85
2023/10/26 10:51:32;;;;;;;8.23;4.05;;;3.00;63.90;;;;;;5015474;28;20038;-83
2023/10/26 10:53:59;;;;;;;7.57;3.70;;;2.80;64.00;;;;;;5023351;28;20506;-84
2023/10/26 10:56:25;;;;;;;5.38;2.92;;;2.80;64.30;;;;;;5013982;28;20034;-83
2023/10/26 10:58:56;;;;;;;13.65;3.45;;;2.60;64.10;;;;;;5014638;28;20036;-85
2023/10/26 11:01:22;;;;;;;8.43;3.70;;;2.50;64.70;;;;;;5015177;28;20054;-84
2023/10/26 11:03:49;;;;;;;10.25;3.90;;;2.50;65.10;;;;;;5013993;28;20483;-85
2023/10/26 11:06:16;;;;;;;8.18;4.20;;;2.50;65.40;;;;;;5013565;28;20034;-84
2023/10/26 11:08:43;;;;;;;7.47;3.42;;;2.50;65.40;;;;;;5014741;28;20055;-85
2023/10/26 11:11:09;;;;;;;9.27;4.38;;;2.50;65.40;;;;;;4996776;28;20041;-84
2023/10/26 11:13:34;;;;;;;7.10;3.60;;;2.50;65.80;;;;;;5019066;28;20018;-83
2023/10/26 11:16:00;;;;;;;4.80;3.70;;;2.40;65.50;;;;;;5005720;28;20042;-85
2023/10/26 11:18:26;;;;;;;7.13;4.25;;;2.30;65.80;;;;;;5015042;28;20026;-84
2023/10/26 11:20:52;;;;;;;6.43;4.20;;;2.40;65.90;;;;;;4996818;28;20018;-85
2023/10/26 11:23:22;;;;;;;6.93;4.40;;;2.40;65.90;;;;;;5015734;28;20475;-86
2023/10/26 11:25:48;;;;;;;8.82;5.38;;;2.50;65.90;;;;;;5022996;28;20038;-85
2023/10/26 11:28:14;;;;;;;9.85;5.85;;;2.50;65.90;;;;;;5027990;28;20060;-84
2023/10/26 11:30:47;;;;;;;12.77;4.07;;;2.50;66.10;;;;;;5020514;28;20018;-82
2023/10/26 11:33:40;;;;;;;9.38;4.05;;;2.60;66.20;;;;;;5019350;28;20450;-83
2023/10/26 11:36:10;;;;;;;9.20;4.13;;;2.60;66.30;;;;;;5024115;28;20379;-85
2023/10/26 11:38:46;;;;;;;9.48;4.95;;;2.60;66.00;;;;;;5026174;28;20033;-84
2023/10/26 11:41:20;;;;;;;10.27;3.42;;;2.50;65.80;;;;;;5022289;28;20064;-84
2023/10/26 11:43:45;;;;;;;12.98;4.70;;;2.50;65.80;;;;;;5004262;28;20017;-85
2023/10/26 11:46:11;;;;;;;10.75;5.05;;;2.50;66.20;;;;;;5021084;28;20095;-86
2023/10/26 11:48:37;;;;;;;14.85;5.88;;;2.40;66.50;;;;;;5014612;28;20064;-85
2023/10/26 11:51:06;;;;;;;8.18;4.30;;;2.50;66.90;;;;;;5013811;28;20026;-85
2023/10/26 11:53:32;;;;;;;10.43;5.22;;;2.40;66.60;;;;;;5023509;28;20047;-87
2023/10/26 11:55:59;;;;;;;7.07;4.18;;;2.30;66.70;;;;;;5015862;28;20018;-87
2023/10/26 11:58:25;;;;;;;13.00;4.28;;;2.30;66.90;;;;;;4996992;28;20045;-84
2023/10/26 12:00:50;;;;;;;7.30;4.43;;;2.20;67.00;;;;;;5021256;28;20026;-87
2023/10/26 12:03:16;;;;;;;6.32;4.22;;;2.20;67.10;;;;;;5014755;28;20061;-86
2023/10/26 12:05:42;;;;;;;8.02;3.95;;;2.20;67.30;;;;;;5017277;28;20025;-84
2023/10/26 12:08:09;;;;;;;11.60;4.40;;;2.10;67.10;;;;;;5013577;28;20045;-84
2023/10/26 12:10:35;;;;;;;8.63;4.50;;;2.00;67.40;;;;;;5014834;28;20101;-87
2023/10/26 12:13:01;;;;;;;14.38;5.05;;;2.10;67.90;;;;;;5017172;28;20053;-87
2023/10/26 12:15:27;;;;;;;8.05;4.07;;;2.10;67.90;;;;;;5048566;28;20049;-85
2023/10/26 12:17:53;;;;;;;10.63;4.00;;;2.10;67.70;;;;;;5041599;28;20033;-88
2023/10/26 12:20:19;;;;;;;7.65;4.30;;;2.10;67.70;;;;;;5036216;28;20382;-84
2023/10/26 12:22:45;;;;;;;10.43;4.75;;;2.10;67.80;;;;;;5030700;28;20029;-87
2023/10/26 12:25:11;;;;;;;8.25;4.07;;;2.00;67.60;;;;;;4995925;28;20153;-86
2023/10/26 12:27:38;;;;;;;11.85;4.93;;;1.90;68.00;;;;;;5013657;28;20073;-87
2023/10/26 12:30:04;;;;;;;7.90;4.20;;;1.80;68.40;;;;;;4996465;28;20120;-86
2023/10/26 12:32:31;;;;;;;5.63;3.73;;;1.70;68.50;;;;;;5013504;28;20028;-88
2023/10/26 12:34:57;;;;;;;7.88;4.45;;;1.70;68.60;;;;;;4999505;28;20083;-85
2023/10/26 12:37:23;;;;;;;8.95;4.95;;;1.70;68.90;;;;;;5019584;28;20026;-86
2023/10/26 12:39:48;;;;;;;6.50;3.72;;;1.70;69.10;;;;;;5013008;28;20014;-85
2023/10/26 12:42:14;;;;;;;11.48;4.30;;;1.60;69.10;;;;;;5026013;28;20025;-85
2023/10/26 12:44:40;;;;;;;10.57;4.10;;;1.50;69.10;;;;;;5013533;28;20023;-86
2023/10/26 12:47:07;;;;;;;7.22;3.90;;;1.50;69.10;;;;;;4995346;28;20038;-87
2023/10/26 12:49:34;;;;;;;7.03;4.30;;;1.40;69.40;;;;;;5022336;28;20060;-88
2023/10/26 12:52:01;;;;;;;9.75;4.28;;;1.40;69.70;;;;;;5013066;28;20041;-85